createdAt,value
2022-08-17T00:01:37.871Z,98604.03
2022-08-17T00:04:20.948Z,98594.59
2022-08-17T00:06:49.104Z,98591.09
2022-08-17T00:09:18.836Z,98588.47
2022-08-17T00:12:40.598Z,98598.25
2022-08-17T00:14:35.313Z,98597.75
2022-08-17T00:17:04.001Z,98599.50
2022-08-17T00:19:32.822Z,98601.28
2022-08-17T00:22:32.564Z,98601.59
2022-08-17T00:24:50.524Z,98607.19
2022-08-17T00:27:18.550Z,98601.94
2022-08-17T00:29:46.131Z,98597.00
2022-08-17T00:33:12.568Z,98603.19
2022-08-17T00:35:06.095Z,98600.84
2022-08-17T00:37:33.271Z,98598.34
2022-08-17T00:40:00.504Z,98599.41
2022-08-17T00:42:30.917Z,98604.66
2022-08-17T00:44:58.884Z,98601.38
2022-08-17T00:47:26.056Z,98611.06
2022-08-17T00:49:53.385Z,98608.63
2022-08-17T00:52:21.902Z,98606.09
2022-08-17T00:54:49.867Z,98608.72
2022-08-17T00:57:19.954Z,98602.81
2022-08-17T01:00:02.024Z,98607.31
2022-08-17T01:02:34.391Z,98606.06
2022-08-17T01:05:10.875Z,98608.06
2022-08-17T01:07:38.147Z,98610.78
2022-08-17T01:10:06.377Z,98605.63
2022-08-17T01:12:35.574Z,98608.34
2022-08-17T01:15:03.103Z,98607.41
2022-08-17T01:17:30.234Z,98610.53
2022-08-17T01:19:57.459Z,98612.31
2022-08-17T01:22:25.071Z,98620.28
2022-08-17T01:25:02.041Z,98616.84
2022-08-17T01:27:29.429Z,98617.25
2022-08-17T01:29:59.657Z,98614.63
2022-08-17T01:32:27.608Z,98612.94
2022-08-17T01:34:54.898Z,98617.44
2022-08-17T01:37:29.004Z,98624.47
2022-08-17T01:40:19.853Z,98627.41
2022-08-17T01:42:50.949Z,98621.72
2022-08-17T01:45:26.899Z,98624.22
2022-08-17T01:47:54.249Z,98622.94
2022-08-17T01:50:24.637Z,98617.78
2022-08-17T01:52:54.366Z,98623.13
2022-08-17T01:55:27.317Z,98608.53
2022-08-17T01:57:54.718Z,98620.09
2022-08-17T02:00:21.755Z,98626.25
2022-08-17T02:02:48.951Z,98624.59
2022-08-17T02:05:16.306Z,98611.78
2022-08-17T02:07:59.892Z,98614.56
2022-08-17T02:10:32.921Z,98601.66
2022-08-17T02:13:01.734Z,98616.28
2022-08-17T02:15:29.390Z,98614.88
2022-08-17T02:17:56.580Z,98608.50
2022-08-17T02:20:41.366Z,98609.56
2022-08-17T02:23:11.216Z,98612.25
2022-08-17T02:25:38.214Z,98606.06
2022-08-17T02:28:05.358Z,98609.00
2022-08-17T02:30:50.216Z,98602.06
2022-08-17T02:33:21.014Z,98598.69
2022-08-17T02:35:48.766Z,98608.53
2022-08-17T02:38:15.791Z,98615.47
2022-08-17T02:40:42.875Z,98619.88
2022-08-17T02:43:13.920Z,98620.25
2022-08-17T02:45:40.928Z,98624.53
2022-08-17T02:48:08.053Z,98632.50
2022-08-17T02:50:35.051Z,98631.84
2022-08-17T02:53:02.928Z,98628.31
2022-08-17T02:55:34.555Z,98620.63
2022-08-17T02:58:03.875Z,98619.78
2022-08-17T03:00:35.488Z,98621.75
2022-08-17T03:03:04.482Z,98620.19
2022-08-17T03:05:32.504Z,98624.66
2022-08-17T03:07:59.556Z,98634.28
2022-08-17T03:10:26.742Z,98626.53
2022-08-17T03:12:54.156Z,98631.22
2022-08-17T03:15:25.205Z,98622.63
2022-08-17T03:17:53.366Z,98627.09
2022-08-17T03:20:20.873Z,98628.03
2022-08-17T03:22:53.201Z,98625.53
2022-08-17T03:25:33.306Z,98624.09
2022-08-17T03:28:01.550Z,98629.44
2022-08-17T03:30:28.807Z,98626.00
2022-08-17T03:32:57.624Z,98620.84
2022-08-17T03:35:26.186Z,98626.19
2022-08-17T03:38:00.961Z,98628.19
2022-08-17T03:40:34.770Z,98632.41
2022-08-17T03:43:16.022Z,98629.41
2022-08-17T03:46:02.086Z,98638.75
2022-08-17T03:48:47.838Z,98650.34
2022-08-17T03:51:36.806Z,98644.56
2022-08-17T03:54:22.854Z,98651.56
2022-08-17T03:57:03.839Z,98662.13
2022-08-17T03:59:31.334Z,98652.75
2022-08-17T04:02:01.089Z,98657.84
2022-08-17T04:04:28.285Z,98650.31
2022-08-17T04:06:55.293Z,98646.88
2022-08-17T04:09:22.340Z,98648.66
2022-08-17T04:11:49.369Z,98644.44
2022-08-17T04:14:16.432Z,98650.41
2022-08-17T04:16:43.381Z,98650.59
2022-08-17T04:19:10.486Z,98655.19
2022-08-17T04:21:37.572Z,98656.09
2022-08-17T04:24:05.242Z,98662.28
2022-08-17T04:26:53.947Z,98653.50
2022-08-17T04:29:19.644Z,98664.16
2022-08-17T04:31:46.653Z,98660.75
2022-08-17T04:34:13.685Z,98653.78
2022-08-17T04:36:40.668Z,98659.09
2022-08-17T04:39:17.555Z,98660.75
2022-08-17T04:42:03.856Z,98662.56
2022-08-17T04:44:37.711Z,98666.38
2022-08-17T04:47:05.602Z,98669.94
2022-08-17T04:49:33.703Z,98681.88
2022-08-17T04:52:04.591Z,98670.69
2022-08-17T04:54:32.236Z,98674.97
2022-08-17T04:57:02.654Z,98678.34
2022-08-17T04:59:30.306Z,98677.69
2022-08-17T05:01:58.162Z,98686.94
2022-08-17T05:04:34.343Z,98679.28
2022-08-17T05:07:03.358Z,98683.78
2022-08-17T05:09:30.493Z,98688.75
2022-08-17T05:12:01.497Z,98690.31
2022-08-17T05:14:32.303Z,98694.75
2022-08-17T05:17:01.497Z,98691.16
2022-08-17T05:19:31.150Z,98695.38
2022-08-17T05:21:58.136Z,98693.44
2022-08-17T05:24:43.244Z,98690.72
2022-08-17T05:27:17.804Z,98703.63
2022-08-17T05:29:46.388Z,98691.13
2022-08-17T05:32:39.691Z,98692.78
2022-08-17T05:35:01.137Z,98700.38
2022-08-17T05:37:28.098Z,98705.34
2022-08-17T05:39:55.269Z,98699.00
2022-08-17T05:42:22.509Z,98697.03
2022-08-17T05:44:49.610Z,98700.34
2022-08-17T05:47:17.061Z,98707.00
2022-08-17T05:49:44.166Z,98705.00
2022-08-17T05:52:24.155Z,98705.59
2022-08-17T05:55:03.860Z,98704.50
2022-08-17T06:00:50.974Z,98700.53
2022-08-17T06:03:48.650Z,98697.53
2022-08-17T06:06:38.053Z,98692.88
2022-08-17T06:09:14.111Z,98701.97
2022-08-17T06:11:46.532Z,98698.97
2022-08-17T06:14:42.751Z,98695.75
2022-08-17T06:17:12.961Z,98698.09
2022-08-17T06:19:42.668Z,98694.13
2022-08-17T06:22:12.255Z,98694.44
2022-08-17T06:24:54.479Z,98697.22
2022-08-17T06:27:53.614Z,98688.34
2022-08-17T06:30:21.942Z,98693.91
2022-08-17T06:32:50.174Z,98686.38
2022-08-17T06:35:38.248Z,98691.03
2022-08-17T06:38:37.863Z,98688.56
2022-08-17T06:41:17.224Z,98690.69
2022-08-17T06:44:06.299Z,98691.88
2022-08-17T06:46:41.934Z,98686.91
2022-08-17T06:49:26.050Z,98685.53
2022-08-17T06:52:45.402Z,98668.63
2022-08-17T06:55:26.580Z,98677.66
2022-08-17T06:57:58.465Z,98670.88
2022-08-17T07:00:33.937Z,98666.88
2022-08-17T07:03:08.802Z,98673.69
2022-08-17T07:05:46.562Z,98682.00
2022-08-17T07:08:45.284Z,98685.81
2022-08-17T07:11:15.287Z,98684.13
2022-08-17T07:14:17.382Z,98687.91
2022-08-17T07:16:47.235Z,98679.38
2022-08-17T07:19:16.910Z,98677.16
2022-08-17T07:22:05.617Z,98674.59
2022-08-17T07:24:52.327Z,98673.19
2022-08-17T07:27:21.903Z,98668.84
2022-08-17T07:29:57.737Z,98674.22
2022-08-17T07:32:31.727Z,98673.44
2022-08-17T07:35:10.709Z,98659.72
2022-08-17T07:37:39.894Z,98665.38
2022-08-17T07:40:31.079Z,98669.84
2022-08-17T07:43:03.301Z,98674.41
2022-08-17T07:45:50.603Z,98677.31
2022-08-17T07:48:20.701Z,98679.91
2022-08-17T07:50:49.577Z,98680.88
2022-08-17T07:53:23.303Z,98680.44
2022-08-17T07:55:50.785Z,98679.13
2022-08-17T07:58:20.002Z,98675.66
2022-08-17T08:00:47.159Z,98678.44
2022-08-17T08:03:27.334Z,98669.59
2022-08-17T08:05:57.850Z,98665.56
2022-08-17T08:08:28.333Z,98665.69
2022-08-17T08:11:02.723Z,98670.25
2022-08-17T08:13:30.393Z,98670.34
2022-08-17T08:16:27.317Z,98664.34
2022-08-17T08:19:00.059Z,98659.19
2022-08-17T08:21:43.187Z,98661.94
2022-08-17T08:24:16.232Z,98659.50
2022-08-17T08:26:58.772Z,98665.63
2022-08-17T08:29:53.439Z,98661.16
2022-08-17T08:32:40.010Z,98652.47
2022-08-17T08:35:18.287Z,98655.50
2022-08-17T08:37:52.403Z,98654.28
2022-08-17T08:40:44.309Z,98648.09
2022-08-17T08:43:26.743Z,98654.06
2022-08-17T08:46:11.727Z,98655.78
2022-08-17T08:49:06.472Z,98647.78
2022-08-17T08:51:55.758Z,98641.84
2022-08-17T08:54:35.003Z,98646.41
2022-08-17T08:57:30.778Z,98640.75
2022-08-17T09:00:16.656Z,98640.66
2022-08-17T09:03:20.518Z,98639.31
2022-08-17T09:05:54.305Z,98638.56
2022-08-17T09:08:35.276Z,98641.88
2022-08-17T09:11:06.404Z,98632.59
2022-08-17T09:13:39.506Z,98643.88
2022-08-17T09:16:10.586Z,98649.47
2022-08-17T09:19:01.562Z,98643.63
2022-08-17T09:21:54.868Z,98645.31
2022-08-17T09:24:41.893Z,98649.91
2022-08-17T09:27:15.909Z,98643.19
2022-08-17T09:29:49.098Z,98645.13
2022-08-17T09:32:31.958Z,98646.19
2022-08-17T09:35:05.632Z,98633.72
2022-08-17T09:37:56.753Z,98635.75
2022-08-17T09:40:33.939Z,98632.66
2022-08-17T09:43:19.676Z,98635.47
2022-08-17T09:45:52.767Z,98646.28
2022-08-17T09:48:33.923Z,98641.31
2022-08-17T09:51:06.446Z,98645.13
2022-08-17T09:53:36.282Z,98637.75
2022-08-17T09:56:25.216Z,98637.38
2022-08-17T09:59:04.210Z,98638.53
2022-08-17T10:01:50.791Z,98632.28
2022-08-17T10:04:48.349Z,98639.19
2022-08-17T10:07:21.277Z,98627.97
2022-08-17T10:10:13.570Z,98630.06
2022-08-17T10:12:59.082Z,98632.81
2022-08-17T10:15:54.854Z,98629.72
2022-08-17T10:18:43.357Z,98630.25
2022-08-17T10:21:47.023Z,98626.13
2022-08-17T10:25:22.114Z,98625.72
2022-08-17T10:27:52.672Z,98626.59
2022-08-17T10:30:25.210Z,98629.81
2022-08-17T10:32:59.419Z,98626.84
2022-08-17T10:35:30.895Z,98633.03
2022-08-17T10:38:21.534Z,98627.41
2022-08-17T10:41:00.217Z,98624.91
2022-08-17T10:43:29.687Z,98622.75
2022-08-17T10:46:31.352Z,98627.44
2022-08-17T10:49:17.268Z,98622.13
2022-08-17T10:51:47.611Z,98624.28
2022-08-17T10:54:39.146Z,98615.88
2022-08-17T10:57:45.634Z,98612.06
2022-08-17T11:00:28.634Z,98607.69
2022-08-17T11:02:56.204Z,98611.03
2022-08-17T11:05:52.583Z,98609.50
2022-08-17T11:08:45.574Z,98613.19
2022-08-17T11:11:36.260Z,98608.13
2022-08-17T11:14:23.901Z,98607.91
2022-08-17T11:17:08.267Z,98601.72
2022-08-17T11:19:59.675Z,98596.16
2022-08-17T11:22:33.387Z,98602.97
2022-08-17T11:25:16.983Z,98597.31
2022-08-17T11:27:44.736Z,98586.72
2022-08-17T11:30:36.161Z,98593.19
2022-08-17T11:33:29.030Z,98593.00
2022-08-17T11:36:16.116Z,98587.00
2022-08-17T11:39:03.434Z,98579.16
2022-08-17T11:41:41.393Z,98582.34
2022-08-17T11:44:20.595Z,98587.19
2022-08-17T11:47:27.814Z,98576.31
2022-08-17T11:50:19.362Z,98571.09
2022-08-17T11:52:48.228Z,98566.88
2022-08-17T11:55:37.488Z,98563.13
2022-08-17T11:58:31.423Z,98553.41
2022-08-17T12:01:06.200Z,98549.19
2022-08-17T12:03:41.299Z,98546.28
2022-08-17T12:06:31.109Z,98546.56
2022-08-17T12:09:48.924Z,98532.53
2022-08-17T12:12:33.110Z,98537.22
2022-08-17T12:15:15.921Z,98523.75
2022-08-17T12:18:03.009Z,98521.78
2022-08-17T12:20:34.357Z,98529.88
2022-08-17T12:23:10.523Z,98530.72
2022-08-17T12:25:53.001Z,98540.06
2022-08-17T12:28:27.286Z,98531.63
2022-08-17T12:31:02.883Z,98528.63
2022-08-17T12:33:40.012Z,98540.25
2022-08-17T12:36:17.012Z,98528.22
2022-08-17T12:39:14.512Z,98528.69
2022-08-17T12:41:51.555Z,98523.72
2022-08-17T12:44:22.611Z,98531.66
2022-08-17T12:47:24.515Z,98520.97
2022-08-17T12:50:28.234Z,98520.97
2022-08-17T12:53:01.770Z,98521.94
2022-08-17T12:55:32.581Z,98524.81
2022-08-17T12:58:02.016Z,98531.63
2022-08-17T13:00:35.927Z,98527.97
2022-08-17T13:03:09.427Z,98529.59
2022-08-17T13:05:54.541Z,98522.78
2022-08-17T13:08:38.287Z,98520.84
2022-08-17T13:11:06.450Z,98526.03
2022-08-17T13:13:37.914Z,98520.66
2022-08-17T13:16:12.149Z,98513.00
2022-08-17T13:18:44.519Z,98513.00
2022-08-17T13:21:41.242Z,98515.69
2022-08-17T13:24:11.066Z,98506.72
2022-08-17T13:26:40.531Z,98504.88
2022-08-17T13:29:24.162Z,98512.53
2022-08-17T13:32:14.412Z,98510.75
2022-08-17T13:35:08.325Z,98510.28
2022-08-17T13:37:35.549Z,98501.78
2022-08-17T13:40:14.504Z,98506.13
2022-08-17T13:42:53.963Z,98496.78
2022-08-17T13:45:36.483Z,98499.47
2022-08-17T13:48:16.255Z,98501.03
2022-08-17T13:51:03.102Z,98490.22
2022-08-17T13:53:50.787Z,98493.38
2022-08-17T13:56:51.271Z,98487.06
2022-08-17T13:59:53.677Z,98492.59
2022-08-17T14:02:21.645Z,98488.72
2022-08-17T14:04:48.888Z,98489.91
2022-08-17T14:07:16.295Z,98494.59
2022-08-17T14:09:54.729Z,98495.31
2022-08-17T14:12:24.676Z,98492.88
2022-08-17T14:14:54.136Z,98485.56
2022-08-17T14:17:23.050Z,98489.16
2022-08-17T14:19:51.101Z,98489.03
2022-08-17T14:22:30.766Z,98495.91
2022-08-17T14:24:58.768Z,98494.25
2022-08-17T14:27:28.321Z,98491.31
2022-08-17T14:29:56.085Z,98489.13
2022-08-17T14:32:25.509Z,98490.69
2022-08-17T14:34:52.776Z,98478.22
2022-08-17T14:37:20.560Z,98481.06
2022-08-17T14:39:47.751Z,98486.28
2022-08-17T14:42:15.704Z,98483.13
2022-08-17T14:44:42.879Z,98485.78
2022-08-17T14:47:15.238Z,98489.66
2022-08-17T14:49:42.645Z,98484.34
2022-08-17T14:52:10.931Z,98485.00
2022-08-17T14:54:42.491Z,98485.19
2022-08-17T14:57:25.144Z,98488.84
2022-08-17T15:00:00.208Z,98497.34
2022-08-17T15:02:31.199Z,98500.03
2022-08-17T15:04:59.900Z,98497.34
2022-08-17T15:07:30.958Z,98493.03
2022-08-17T15:10:02.514Z,98505.53
2022-08-17T15:12:33.264Z,98504.72
2022-08-17T15:15:05.092Z,98509.75
2022-08-17T15:17:44.617Z,98504.91
2022-08-17T15:20:18.711Z,98497.88
2022-08-17T15:22:47.020Z,98495.56
2022-08-17T15:25:14.272Z,98500.03
2022-08-17T15:27:41.840Z,98503.72
2022-08-17T15:30:10.126Z,98499.41
2022-08-17T15:32:50.851Z,98501.72
2022-08-17T15:35:22.023Z,98494.59
2022-08-17T15:37:55.785Z,98491.25
2022-08-17T15:40:23.289Z,98491.09
2022-08-17T15:42:52.525Z,98484.25
2022-08-17T15:45:31.471Z,98484.63
2022-08-17T15:48:04.735Z,98485.44
2022-08-17T15:50:46.695Z,98484.13
2022-08-17T15:53:17.761Z,98481.31
2022-08-17T16:03:13.702Z,98497.50
2022-08-17T16:08:20.611Z,98486.34
2022-08-17T16:11:29.265Z,98489.19
2022-08-17T16:14:15.757Z,98491.34
2022-08-17T16:20:21.098Z,98488.88
2022-08-17T16:29:47.057Z,98496.56
2022-08-17T16:32:55.503Z,98488.25
2022-08-17T16:35:41.755Z,98503.41
2022-08-17T16:38:44.283Z,98499.25
2022-08-17T16:51:40.433Z,98506.72
2022-08-17T16:54:38.625Z,98502.03
2022-08-17T17:10:23.658Z,98511.97
2022-08-17T17:13:23.347Z,98512.13
2022-08-17T17:23:18.980Z,98527.22
2022-08-17T18:31:09.588Z,98575.16
2022-08-17T18:33:37.091Z,98579.31
2022-08-17T19:36:13.201Z,98634.47
2022-08-17T19:38:45.143Z,98635.66
2022-08-17T19:41:30.108Z,98623.09
2022-08-17T19:44:35.441Z,98626.03
2022-08-17T19:47:43.127Z,98630.31
2022-08-17T19:50:22.299Z,98626.22
2022-08-17T19:53:54.278Z,98630.22
2022-08-17T19:56:29.235Z,98622.91
2022-08-17T19:59:14.429Z,98620.94
2022-08-17T20:01:54.490Z,98622.34
2022-08-17T20:04:32.484Z,98618.13
2022-08-17T20:07:24.290Z,98616.91
2022-08-17T20:09:55.262Z,98608.81
2022-08-17T20:12:24.528Z,98608.50
2022-08-17T20:15:08.877Z,98613.03
2022-08-17T20:17:39.003Z,98610.91
2022-08-17T20:20:19.786Z,98615.88
2022-08-17T20:22:59.495Z,98615.47
2022-08-17T20:25:36.732Z,98612.97
2022-08-17T20:28:07.057Z,98614.56
2022-08-17T20:30:41.232Z,98620.78
2022-08-17T20:33:29.301Z,98632.50
2022-08-17T20:36:11.934Z,98615.25
2022-08-17T22:42:06.562Z,98680.69
2022-08-17T22:44:44.569Z,98676.97
2022-08-17T22:47:15.253Z,98680.44
2022-08-17T22:49:57.935Z,98671.06
2022-08-17T22:53:02.862Z,98671.66
2022-08-17T22:55:49.850Z,98677.28
2022-08-17T22:58:38.197Z,98678.25
2022-08-17T23:01:26.096Z,98681.41
2022-08-17T23:03:57.950Z,98676.25
2022-08-17T23:06:25.137Z,98685.97
2022-08-17T23:08:56.645Z,98684.38
2022-08-17T23:11:42.894Z,98684.50
2022-08-17T23:14:15.952Z,98676.22
2022-08-17T23:16:43.130Z,98685.06
2022-08-17T23:19:11.523Z,98687.69
2022-08-17T23:21:38.644Z,98691.63
2022-08-17T23:24:06.958Z,98686.47
2022-08-17T23:26:38.069Z,98686.72
2022-08-17T23:29:06.635Z,98681.78
2022-08-17T23:31:34.856Z,98681.78
2022-08-17T23:34:03.302Z,98675.06
2022-08-17T23:36:31.805Z,98670.97
2022-08-17T23:38:58.974Z,98664.00
2022-08-17T23:41:27.148Z,98665.19
2022-08-17T23:43:58.339Z,98655.75
2022-08-17T23:46:25.450Z,98651.75
2022-08-17T23:48:54.324Z,98649.25
2022-08-17T23:51:27.490Z,98652.84
2022-08-17T23:54:08.098Z,98631.38
2022-08-17T23:56:42.412Z,98629.94
2022-08-17T23:59:09.642Z,98624.88
